createdAt,value
2022-10-15T05:43:12.943Z,11.70
2022-10-15T05:45:39.687Z,11.70
2022-10-15T05:48:06.632Z,11.70
2022-10-15T05:50:33.557Z,11.80
2022-10-15T05:53:04.330Z,11.80
2022-10-15T05:56:00.578Z,11.80
2022-10-15T05:58:30.878Z,11.80
2022-10-15T06:01:01.626Z,11.80
2022-10-15T06:03:28.724Z,11.90
2022-10-15T06:05:55.497Z,11.90
2022-10-15T06:08:22.397Z,12.00
2022-10-15T06:10:51.694Z,12.00
2022-10-15T06:13:31.359Z,12.00
2022-10-15T06:16:00.842Z,12.00
2022-10-15T06:18:27.622Z,12.10
2022-10-15T06:20:54.410Z,12.10
2022-10-15T06:23:22.043Z,12.20
2022-10-15T06:25:49.470Z,12.20
2022-10-15T06:28:16.339Z,12.20
2022-10-15T06:30:43.782Z,12.30
2022-10-15T06:35:41.248Z,12.40
2022-10-15T06:38:08.030Z,12.60
2022-10-15T06:40:34.819Z,12.50
2022-10-15T06:43:06.018Z,12.60
2022-10-15T06:45:32.908Z,12.70
2022-10-15T06:47:59.678Z,12.80
2022-10-15T06:50:26.505Z,12.90
2022-10-15T06:52:53.303Z,12.90
2022-10-15T06:55:20.049Z,13.00
2022-10-15T06:57:48.286Z,13.00
2022-10-15T07:00:15.146Z,13.00
2022-10-15T07:02:41.897Z,13.10
2022-10-15T07:05:08.987Z,13.10
2022-10-15T07:07:35.701Z,13.10
2022-10-15T07:10:02.464Z,13.20
2022-10-15T07:12:29.221Z,13.20
2022-10-15T07:14:55.974Z,13.20
2022-10-15T07:17:22.842Z,13.30
2022-10-15T07:19:49.683Z,13.20
2022-10-15T07:22:16.701Z,13.20
2022-10-15T07:24:46.191Z,13.20
2022-10-15T07:27:20.640Z,13.20
2022-10-15T07:29:47.595Z,13.20
2022-10-15T07:32:14.706Z,13.40
2022-10-15T07:34:41.466Z,13.50
2022-10-15T07:37:08.238Z,13.60
2022-10-15T07:39:37.715Z,13.60
2022-10-15T07:42:07.668Z,13.80
2022-10-15T07:44:34.447Z,13.80
2022-10-15T07:47:01.158Z,13.90
2022-10-15T07:49:27.898Z,13.90
2022-10-15T07:51:54.727Z,14.00
2022-10-15T07:54:21.556Z,14.10
2022-10-15T07:56:48.295Z,14.10
2022-10-15T07:59:15.058Z,14.10
2022-10-15T08:01:41.981Z,14.20
2022-10-15T08:04:09.060Z,14.20
2022-10-15T08:06:35.832Z,14.20
2022-10-15T08:09:04.886Z,14.30
2022-10-15T08:11:31.592Z,14.20
2022-10-15T08:13:58.287Z,14.10
2022-10-15T08:16:25.021Z,14.10
2022-10-15T08:21:19.398Z,14.20
2022-10-15T08:23:46.319Z,14.20
2022-10-15T08:26:13.138Z,14.30
2022-10-15T08:28:39.964Z,14.40
2022-10-15T08:31:06.835Z,14.50
2022-10-15T08:33:37.060Z,14.50
2022-10-15T08:36:07.466Z,14.60
2022-10-15T08:38:34.496Z,14.70
2022-10-15T08:41:01.755Z,14.80
2022-10-15T08:43:40.257Z,15.00
2022-10-15T08:46:10.677Z,15.10
2022-10-15T08:48:41.097Z,15.20
2022-10-15T08:51:17.329Z,15.20
2022-10-15T08:53:49.695Z,15.30
2022-10-15T08:56:20.070Z,15.30
2022-10-15T08:58:55.365Z,15.40
2022-10-15T09:01:57.356Z,15.40
2022-10-15T09:04:36.480Z,15.40
2022-10-15T09:07:12.654Z,15.30
2022-10-15T09:09:51.976Z,15.20
2022-10-15T09:12:31.552Z,15.30
2022-10-15T09:14:58.672Z,15.20
2022-10-15T09:17:26.807Z,15.30
2022-10-15T09:19:55.328Z,15.30
2022-10-15T09:22:27.120Z,15.40
2022-10-15T09:24:54.147Z,15.40
2022-10-15T09:27:37.077Z,15.60
2022-10-15T09:30:11.232Z,15.60
2022-10-15T09:32:46.905Z,15.60
2022-10-15T09:35:30.285Z,15.60
2022-10-15T09:38:25.172Z,15.60
2022-10-15T09:41:04.868Z,15.60
2022-10-15T09:43:35.706Z,15.70
2022-10-15T09:46:03.587Z,15.60
2022-10-15T09:48:36.431Z,15.70
2022-10-15T09:51:16.036Z,15.60
2022-10-15T09:54:03.482Z,15.70
2022-10-15T09:56:43.277Z,15.70
2022-10-15T09:59:17.796Z,15.70
2022-10-15T10:01:59.354Z,15.70
2022-10-15T10:04:28.385Z,15.60
2022-10-15T10:07:00.454Z,15.60
2022-10-15T10:09:33.088Z,15.50
2022-10-15T10:12:02.270Z,15.50
2022-10-15T10:14:33.095Z,15.50
2022-10-15T10:17:20.908Z,15.40
2022-10-15T10:20:14.699Z,15.40
2022-10-15T10:22:54.915Z,15.50
2022-10-15T10:25:29.118Z,15.50
2022-10-15T10:27:57.444Z,15.50
2022-10-15T10:30:24.284Z,15.50
2022-10-15T10:32:57.035Z,15.50
2022-10-15T10:35:34.375Z,15.50
2022-10-15T10:38:59.244Z,15.60
2022-10-15T10:41:26.203Z,15.60
2022-10-15T10:43:54.771Z,15.70
2022-10-15T10:46:33.458Z,15.70
2022-10-15T10:51:54.122Z,15.80
2022-10-15T10:54:20.944Z,15.90
2022-10-15T10:56:51.275Z,16.00
2022-10-15T10:59:37.646Z,16.00
2022-10-15T11:02:16.386Z,16.00
2022-10-15T11:04:43.199Z,16.10
2022-10-15T11:07:31.112Z,16.10
2022-10-15T11:10:17.167Z,16.20
2022-10-15T11:12:53.297Z,16.20
2022-10-15T11:15:48.026Z,16.00
2022-10-15T11:18:43.109Z,15.90
2022-10-15T11:21:15.778Z,15.80
2022-10-15T11:24:04.008Z,15.60
2022-10-15T11:26:46.012Z,15.50
2022-10-15T11:29:25.103Z,15.40
2022-10-15T11:32:14.974Z,15.30
2022-10-15T11:35:20.108Z,15.20
2022-10-15T11:38:10.544Z,15.10
2022-10-15T11:41:19.065Z,14.90
2022-10-15T11:43:45.856Z,14.80
2022-10-15T11:46:28.154Z,14.70
2022-10-15T11:49:04.853Z,14.60
2022-10-15T11:51:49.061Z,14.60
2022-10-15T11:54:26.254Z,14.60
2022-10-15T11:56:53.832Z,14.50
2022-10-15T11:59:33.681Z,14.50
2022-10-15T12:02:18.250Z,14.40
2022-10-15T12:04:52.455Z,14.40
2022-10-15T12:07:48.883Z,14.30
2022-10-15T12:10:46.786Z,14.30
2022-10-15T12:13:26.698Z,14.20
2022-10-15T12:16:12.071Z,14.30
2022-10-15T12:19:09.223Z,14.20
2022-10-15T12:21:54.775Z,14.20
2022-10-15T12:24:52.686Z,14.20
2022-10-15T12:27:27.121Z,14.10
2022-10-15T12:30:02.910Z,14.10
2022-10-15T12:32:30.301Z,14.10
2022-10-15T12:37:43.129Z,14.10
2022-10-15T12:44:04.323Z,14.10
2022-10-15T12:50:08.919Z,14.10
2022-10-15T12:53:13.711Z,14.20
2022-10-15T12:55:40.464Z,14.20
2022-10-15T12:58:28.843Z,14.20
2022-10-15T13:00:58.007Z,14.30
2022-10-15T13:03:34.757Z,14.30
2022-10-15T13:06:20.468Z,14.20
2022-10-15T13:08:52.279Z,14.30
2022-10-15T13:11:24.228Z,14.20
2022-10-15T13:14:14.607Z,14.10
2022-10-15T13:16:47.979Z,14.10
2022-10-15T13:19:41.860Z,14.10
2022-10-15T13:22:23.579Z,14.00
2022-10-15T13:24:50.606Z,14.00
2022-10-15T13:27:26.635Z,14.00
2022-10-15T13:29:57.005Z,13.90
2022-10-15T13:32:24.247Z,13.90
2022-10-15T13:34:51.465Z,13.90
2022-10-15T13:37:21.288Z,13.90
2022-10-15T13:39:50.134Z,13.90
2022-10-15T13:42:19.322Z,13.90
2022-10-15T13:45:04.817Z,13.90
2022-10-15T13:47:36.048Z,13.90
2022-10-15T13:50:21.208Z,13.90
2022-10-15T13:52:59.736Z,13.80
2022-10-15T13:55:36.310Z,13.90
2022-10-15T13:58:18.444Z,13.90
2022-10-15T14:01:19.234Z,13.90
2022-10-15T14:03:50.131Z,13.90
2022-10-15T14:06:24.410Z,13.90
2022-10-15T14:08:53.625Z,14.00
2022-10-15T14:11:20.662Z,14.00
2022-10-15T14:13:48.810Z,14.00
2022-10-15T14:16:38.225Z,14.00
2022-10-15T14:19:08.584Z,14.00
2022-10-15T14:21:35.700Z,14.00
2022-10-15T14:24:20.594Z,14.00
2022-10-15T14:26:47.721Z,14.00
2022-10-15T14:29:35.762Z,14.00
2022-10-15T14:32:02.623Z,14.00
2022-10-15T14:34:47.122Z,14.00
2022-10-15T14:37:35.144Z,14.10
2022-10-15T14:40:12.707Z,14.00
2022-10-15T14:43:00.868Z,14.00
2022-10-15T14:45:32.063Z,14.00
2022-10-15T14:48:03.343Z,14.00
2022-10-15T14:50:36.158Z,14.10
2022-10-15T14:53:08.312Z,14.10
2022-10-15T14:55:42.311Z,14.10
2022-10-15T14:58:10.721Z,14.10
2022-10-15T15:00:54.908Z,14.10
2022-10-15T15:03:26.413Z,14.10
2022-10-15T15:05:58.513Z,14.10
2022-10-15T15:08:29.138Z,14.10
2022-10-15T15:10:57.587Z,14.10
2022-10-15T15:13:25.905Z,14.20
2022-10-15T15:15:53.473Z,14.10
2022-10-15T15:18:20.755Z,14.10
2022-10-15T15:20:48.488Z,14.10
2022-10-15T15:23:20.288Z,14.00
2022-10-15T15:25:48.210Z,14.10
2022-10-15T15:28:19.663Z,14.00
2022-10-15T15:30:47.038Z,14.10
2022-10-15T15:33:15.004Z,14.00
2022-10-15T15:35:53.425Z,14.00
2022-10-15T15:38:22.319Z,14.00
2022-10-15T15:40:49.538Z,14.00
2022-10-15T15:43:17.811Z,14.00
2022-10-15T15:45:45.173Z,14.10
2022-10-15T15:48:13.149Z,13.90
2022-10-15T15:50:47.115Z,13.90
2022-10-15T15:53:13.973Z,14.00
2022-10-15T15:55:41.873Z,14.00
2022-10-15T15:58:09.105Z,14.00
2022-10-15T16:00:35.973Z,13.90
2022-10-15T16:03:09.162Z,13.90
2022-10-15T16:05:36.744Z,13.90
2022-10-15T16:08:03.934Z,13.90
2022-10-15T16:10:30.764Z,13.90
2022-10-15T16:25:05.766Z,13.90
2022-10-15T16:28:25.800Z,13.90
2022-10-15T16:46:30.333Z,14.00
2022-10-15T16:49:11.545Z,14.00
2022-10-15T16:54:54.175Z,14.00
2022-10-15T17:48:06.412Z,14.00
2022-10-15T17:50:51.356Z,14.10
2022-10-15T17:53:36.512Z,14.00
2022-10-15T17:56:24.206Z,14.10
2022-10-15T17:59:02.840Z,14.10
2022-10-15T18:01:58.922Z,14.10
2022-10-15T18:04:51.030Z,14.00
2022-10-15T18:07:53.699Z,14.10
2022-10-15T18:10:29.728Z,14.00
2022-10-15T18:13:05.723Z,14.00
2022-10-15T18:16:06.879Z,14.00
2022-10-15T18:18:48.797Z,14.00
2022-10-15T18:21:26.061Z,14.00
2022-10-15T18:24:04.156Z,14.00
2022-10-15T18:26:54.668Z,14.00
2022-10-15T18:29:33.251Z,13.90
2022-10-15T18:32:10.000Z,14.00
2022-10-15T18:35:06.907Z,13.90
2022-10-15T18:37:49.359Z,13.90
2022-10-15T18:40:25.541Z,13.90
2022-10-15T18:43:04.606Z,13.90
2022-10-15T18:45:44.955Z,13.90
2022-10-15T18:48:23.340Z,13.90
2022-10-15T18:51:03.159Z,13.90
2022-10-15T18:53:41.292Z,13.90
2022-10-15T18:56:26.035Z,13.90
2022-10-15T18:59:06.774Z,13.90
2022-10-15T19:01:44.192Z,13.90
2022-10-15T19:04:24.293Z,13.90
2022-10-15T19:07:07.458Z,13.90
2022-10-15T19:09:48.736Z,13.90
2022-10-15T19:12:31.605Z,13.90
2022-10-15T19:15:13.047Z,13.90
2022-10-15T19:17:55.552Z,13.90
2022-10-15T19:20:34.938Z,13.90
2022-10-15T19:23:15.466Z,13.90
2022-10-15T19:25:54.894Z,13.90
2022-10-15T19:28:34.898Z,13.90
2022-10-15T19:31:18.336Z,13.80
2022-10-15T19:33:54.892Z,13.80
2022-10-15T19:36:38.036Z,13.80
2022-10-15T19:39:24.110Z,13.90
2022-10-15T19:42:10.349Z,13.80
2022-10-15T19:44:56.678Z,13.90
2022-10-15T19:47:31.379Z,13.90
2022-10-15T19:50:12.257Z,13.90
2022-10-15T19:52:56.713Z,13.80
2022-10-15T19:55:36.222Z,13.80
2022-10-15T19:58:18.656Z,13.80
2022-10-15T20:01:01.749Z,13.80
2022-10-15T20:03:37.923Z,13.70
2022-10-15T20:06:19.721Z,13.70
2022-10-15T20:09:00.513Z,13.60
2022-10-15T20:11:33.869Z,13.60
2022-10-15T20:14:04.660Z,13.60
2022-10-15T20:16:49.209Z,13.50
2022-10-15T20:19:28.714Z,13.50
2022-10-15T20:22:09.474Z,13.40
2022-10-15T20:25:07.036Z,13.40
2022-10-15T20:27:48.827Z,13.50
2022-10-15T20:30:35.031Z,13.40
2022-10-15T20:33:29.558Z,13.40
2022-10-15T20:36:23.995Z,13.40
2022-10-15T20:39:05.177Z,13.30
2022-10-15T20:41:44.937Z,13.30
2022-10-15T20:44:23.847Z,13.20
2022-10-15T20:47:07.496Z,13.20
2022-10-15T20:49:50.956Z,13.00
2022-10-15T20:52:52.789Z,13.00
2022-10-15T20:55:57.921Z,13.00
2022-10-15T20:59:09.333Z,12.90
2022-10-15T21:06:05.813Z,12.80
2022-10-15T21:12:32.145Z,12.70
2022-10-15T21:15:21.107Z,12.60
2022-10-15T21:17:57.838Z,12.50
2022-10-15T21:21:09.134Z,12.50
2022-10-15T21:24:00.903Z,12.40
2022-10-15T21:26:39.988Z,12.40
2022-10-15T21:29:23.334Z,12.30
2022-10-15T21:31:58.541Z,12.30
2022-10-15T21:37:36.198Z,12.30
2022-10-15T21:40:18.922Z,12.40
2022-10-15T21:43:00.705Z,12.30
2022-10-15T21:45:39.817Z,12.30
2022-10-15T21:48:18.592Z,12.30
2022-10-15T21:51:04.335Z,12.40
2022-10-15T21:53:44.753Z,12.30
2022-10-15T21:56:27.931Z,12.30
2022-10-15T21:59:07.771Z,12.40
2022-10-15T22:02:03.189Z,12.40
2022-10-15T22:04:45.841Z,12.30
2022-10-15T22:07:31.783Z,12.40
2022-10-15T22:10:17.019Z,12.40
2022-10-15T22:13:02.921Z,12.40
2022-10-15T22:15:44.767Z,12.50
2022-10-15T22:18:31.006Z,12.50
2022-10-15T22:21:20.951Z,12.40
2022-10-15T22:24:13.951Z,12.40
2022-10-15T22:27:01.729Z,12.30
2022-10-15T22:29:51.442Z,12.20
2022-10-15T22:32:27.140Z,12.20
2022-10-15T22:35:13.092Z,12.10
2022-10-15T22:37:57.767Z,12.10
2022-10-15T22:40:37.127Z,12.00
2022-10-15T22:43:18.009Z,12.00
2022-10-15T22:46:00.827Z,12.00
2022-10-15T22:48:42.897Z,12.00
2022-10-15T22:51:24.905Z,11.90
2022-10-15T22:54:07.541Z,11.90
2022-10-15T22:57:07.869Z,11.80
2022-10-15T22:59:59.497Z,11.80
2022-10-15T23:02:40.660Z,11.70
2022-10-15T23:05:19.915Z,11.70
2022-10-15T23:07:58.996Z,11.70
2022-10-15T23:10:42.765Z,11.60
2022-10-15T23:13:23.897Z,11.60
2022-10-15T23:16:13.783Z,11.60
2022-10-15T23:18:58.613Z,11.50
2022-10-15T23:21:49.599Z,11.50
2022-10-15T23:24:36.608Z,11.50
2022-10-15T23:27:15.896Z,11.50
2022-10-15T23:30:14.336Z,11.50
2022-10-15T23:33:02.695Z,11.50
2022-10-15T23:35:45.615Z,11.50
2022-10-15T23:38:24.853Z,11.50
2022-10-15T23:41:08.931Z,11.50
2022-10-15T23:43:48.673Z,11.50
2022-10-15T23:46:29.698Z,11.50
2022-10-15T23:49:14.843Z,11.50
2022-10-15T23:51:53.908Z,11.60
2022-10-15T23:54:32.943Z,11.60
2022-10-15T23:57:14.691Z,11.60
2022-10-15T23:59:53.727Z,11.60
